createdAt,value
2017-12-17T00:01:59.522Z,1.50
2017-12-17T00:07:02.688Z,1.60
2017-12-17T00:12:06.689Z,1.60
2017-12-17T00:17:09.821Z,1.60
2017-12-17T00:22:14.404Z,1.60
2017-12-17T00:27:17.353Z,1.60
2017-12-17T00:32:21.218Z,1.60
2017-12-17T00:37:24.114Z,1.60
2017-12-17T00:42:27.815Z,1.60
2017-12-17T00:47:30.807Z,1.60
2017-12-17T00:52:34.008Z,1.70
2017-12-17T00:57:38.674Z,1.70
2017-12-17T01:02:42.022Z,1.70
2017-12-17T01:07:45.901Z,1.70
2017-12-17T01:12:48.800Z,1.70
2017-12-17T01:17:53.859Z,1.70
2017-12-17T01:22:58.798Z,1.70
2017-12-17T01:28:03.855Z,1.70
2017-12-17T01:33:08.496Z,1.70
2017-12-17T01:38:13.622Z,1.70
2017-12-17T01:43:17.163Z,1.60
2017-12-17T01:48:21.038Z,1.70
2017-12-17T01:53:24.664Z,1.70
2017-12-17T01:58:28.412Z,1.70
2017-12-17T02:03:33.356Z,1.70
2017-12-17T02:08:36.464Z,1.70
2017-12-17T02:13:41.323Z,1.70
2017-12-17T02:18:45.252Z,1.70
2017-12-17T02:23:48.887Z,1.70
2017-12-17T02:28:52.324Z,1.70
2017-12-17T02:33:56.061Z,1.70
2017-12-17T02:39:00.344Z,1.70
2017-12-17T02:44:03.902Z,1.70
2017-12-17T02:49:07.755Z,1.70
2017-12-17T02:54:11.589Z,1.70
2017-12-17T02:59:14.858Z,1.70
2017-12-17T03:04:18.304Z,1.70
2017-12-17T03:09:21.251Z,1.70
2017-12-17T03:14:25.125Z,1.70
2017-12-17T03:19:29.394Z,1.70
2017-12-17T03:24:32.248Z,1.70
2017-12-17T03:29:35.677Z,1.70
2017-12-17T03:34:38.755Z,1.60
2017-12-17T03:39:43.004Z,1.60
2017-12-17T03:44:46.311Z,1.60
2017-12-17T03:49:50.193Z,1.60
2017-12-17T03:54:54.444Z,1.60
2017-12-17T03:59:57.960Z,1.60
2017-12-17T04:05:02.200Z,1.60
2017-12-17T04:10:05.642Z,1.60
2017-12-17T04:15:10.143Z,1.60
2017-12-17T04:20:13.294Z,1.60
2017-12-17T04:25:16.228Z,1.60
2017-12-17T04:30:19.437Z,1.60
2017-12-17T04:35:23.202Z,1.60
2017-12-17T04:40:26.935Z,1.60
2017-12-17T04:45:31.975Z,1.60
2017-12-17T04:50:35.099Z,1.60
2017-12-17T04:55:37.647Z,1.60
2017-12-17T05:00:40.951Z,1.60
2017-12-17T05:05:43.495Z,1.60
2017-12-17T05:10:46.037Z,1.60
2017-12-17T05:15:48.575Z,1.60
2017-12-17T05:20:51.123Z,1.60
2017-12-17T05:25:53.655Z,1.60
2017-12-17T05:30:56.190Z,1.60
2017-12-17T05:35:58.734Z,1.60
2017-12-17T05:41:02.055Z,1.60
2017-12-17T05:46:05.371Z,1.60
2017-12-17T05:51:08.687Z,1.60
2017-12-17T05:56:12.772Z,1.60
2017-12-17T06:01:15.311Z,1.60
2017-12-17T06:06:17.850Z,1.60
2017-12-17T06:11:20.375Z,1.60
2017-12-17T06:16:22.911Z,1.60
2017-12-17T06:21:26.209Z,1.60
2017-12-17T06:26:28.751Z,1.60
2017-12-17T06:31:31.286Z,1.60
2017-12-17T06:36:33.834Z,1.60
2017-12-17T06:41:36.421Z,1.60
2017-12-17T06:46:39.734Z,1.60
2017-12-17T06:51:43.051Z,1.60
2017-12-17T06:56:45.587Z,1.60
2017-12-17T07:01:48.119Z,1.60
2017-12-17T07:06:50.666Z,1.60
2017-12-17T07:11:53.214Z,1.60
2017-12-17T07:16:55.746Z,1.60
2017-12-17T07:21:58.300Z,1.60
2017-12-17T07:27:00.851Z,1.60
2017-12-17T07:32:04.159Z,1.60
2017-12-17T07:37:07.475Z,1.60
2017-12-17T07:42:10.002Z,1.60
2017-12-17T07:47:12.566Z,1.60
2017-12-17T07:52:15.105Z,1.70
2017-12-17T07:57:17.641Z,1.60
2017-12-17T08:02:20.179Z,1.70
2017-12-17T08:07:22.717Z,1.70
2017-12-17T08:12:25.294Z,1.70
2017-12-17T08:17:28.571Z,1.70
2017-12-17T08:22:31.106Z,1.70
2017-12-17T08:27:33.650Z,1.70
2017-12-17T08:32:36.210Z,1.70
2017-12-17T08:37:38.738Z,1.80
2017-12-17T08:42:41.274Z,1.80
2017-12-17T08:47:44.586Z,1.80
2017-12-17T08:52:47.908Z,1.90
2017-12-17T08:57:50.454Z,1.80
2017-12-17T09:02:53.755Z,1.90
2017-12-17T09:07:56.305Z,1.90
2017-12-17T09:12:58.849Z,1.90
2017-12-17T09:18:01.387Z,2.00
2017-12-17T09:23:03.923Z,2.00
2017-12-17T09:28:07.231Z,2.00
2017-12-17T09:33:10.539Z,2.10
2017-12-17T09:38:13.071Z,2.00
2017-12-17T09:43:15.615Z,2.10
2017-12-17T09:48:18.166Z,2.10
2017-12-17T09:53:20.722Z,2.10
2017-12-17T09:58:23.262Z,2.20
2017-12-17T10:03:25.798Z,2.20
2017-12-17T10:08:28.356Z,2.20
2017-12-17T10:13:30.894Z,2.20
2017-12-17T10:18:33.433Z,2.30
2017-12-17T10:23:35.991Z,2.30
2017-12-17T10:28:38.547Z,2.30
2017-12-17T10:33:41.097Z,2.30
2017-12-17T10:38:43.663Z,2.40
2017-12-17T10:43:46.202Z,2.50
2017-12-17T10:48:48.738Z,2.50
2017-12-17T10:53:51.283Z,2.60
2017-12-17T10:58:53.820Z,2.60
2017-12-17T11:03:56.351Z,2.70
2017-12-17T11:08:58.895Z,2.60
2017-12-17T11:14:01.433Z,2.70
2017-12-17T11:19:03.955Z,2.80
2017-12-17T11:24:06.502Z,2.80
2017-12-17T11:29:09.050Z,2.80
2017-12-17T11:34:11.590Z,2.80
2017-12-17T11:39:14.138Z,2.80
2017-12-17T11:44:16.683Z,2.80
2017-12-17T11:49:19.218Z,2.80
2017-12-17T11:54:21.755Z,2.80
2017-12-17T11:59:24.393Z,2.80
2017-12-17T12:04:26.926Z,2.80
2017-12-17T12:09:29.474Z,2.80
2017-12-17T12:14:32.020Z,2.70
2017-12-17T12:19:34.554Z,2.70
2017-12-17T12:24:37.114Z,2.80
2017-12-17T12:29:39.654Z,2.80
2017-12-17T12:34:42.391Z,2.80
2017-12-17T12:39:45.705Z,2.80
2017-12-17T12:44:49.018Z,2.80
2017-12-17T12:55:04.581Z,2.80
2017-12-17T13:05:19.206Z,2.80
2017-12-17T13:10:24.148Z,2.80
2017-12-17T13:15:28.679Z,2.80
2017-12-17T13:20:32.603Z,2.80
2017-12-17T13:25:38.857Z,2.80
2017-12-17T13:30:46.192Z,2.80
2017-12-17T13:35:50.376Z,2.80
2017-12-17T13:40:55.441Z,2.80
2017-12-17T13:45:59.210Z,2.80
2017-12-17T13:51:03.727Z,2.80
2017-12-17T13:56:07.663Z,2.80
2017-12-17T14:01:11.106Z,2.80
2017-12-17T14:06:18.638Z,2.70
2017-12-17T14:11:23.543Z,2.70
2017-12-17T14:16:26.875Z,2.70
2017-12-17T14:21:32.194Z,2.70
2017-12-17T14:26:37.837Z,2.60
2017-12-17T14:31:43.227Z,2.60
2017-12-17T14:36:46.397Z,2.60
2017-12-17T14:41:49.099Z,2.50
2017-12-17T14:46:51.652Z,2.50
2017-12-17T14:51:54.188Z,2.50
2017-12-17T14:56:56.727Z,2.50
2017-12-17T15:01:59.268Z,2.40
2017-12-17T15:07:01.815Z,2.40
2017-12-17T15:12:04.348Z,2.40
2017-12-17T15:17:06.886Z,2.40
2017-12-17T15:22:10.186Z,2.40
2017-12-17T15:27:12.734Z,2.30
2017-12-17T15:32:15.272Z,2.30
2017-12-17T15:37:17.851Z,2.30
2017-12-17T15:42:20.390Z,2.30
2017-12-17T15:47:23.701Z,2.30
2017-12-17T15:52:26.252Z,2.20
2017-12-17T15:57:28.797Z,2.20
2017-12-17T16:02:31.710Z,2.20
2017-12-17T16:07:35.042Z,2.20
2017-12-17T16:12:38.335Z,2.20
2017-12-17T16:17:40.870Z,2.20
2017-12-17T16:22:43.426Z,2.10
2017-12-17T16:27:45.963Z,2.10
2017-12-17T16:32:49.274Z,2.00
2017-12-17T16:37:51.814Z,2.00
2017-12-17T16:42:54.359Z,2.00
2017-12-17T16:47:57.659Z,2.00
2017-12-17T16:53:00.223Z,2.00
2017-12-17T16:58:02.763Z,2.00
2017-12-17T17:03:05.326Z,1.90
2017-12-17T17:08:07.875Z,1.90
2017-12-17T17:13:12.938Z,1.90
2017-12-17T17:18:16.915Z,1.80
2017-12-17T17:23:19.827Z,1.90
2017-12-17T17:28:22.744Z,1.80
2017-12-17T17:33:26.098Z,1.80
2017-12-17T17:38:29.084Z,1.80
2017-12-17T17:43:36.281Z,1.80
2017-12-17T17:48:43.405Z,1.80
2017-12-17T17:53:52.505Z,1.80
2017-12-17T17:58:55.047Z,1.70
2017-12-17T18:03:58.356Z,1.70
2017-12-17T18:09:00.899Z,1.70
2017-12-17T18:14:03.452Z,1.70
2017-12-17T18:19:05.959Z,1.70
2017-12-17T18:24:09.267Z,1.60
2017-12-17T18:29:12.607Z,1.70
2017-12-17T18:34:15.128Z,1.70
2017-12-17T18:39:17.667Z,1.70
2017-12-17T18:44:20.358Z,1.70
2017-12-17T18:49:22.894Z,1.70
2017-12-17T18:54:25.533Z,1.70
2017-12-17T18:59:28.062Z,1.70
2017-12-17T19:04:30.603Z,1.60
2017-12-17T19:09:33.154Z,1.70
2017-12-17T19:14:35.678Z,1.70
2017-12-17T19:19:38.980Z,1.70
2017-12-17T19:24:41.541Z,1.60
2017-12-17T19:29:44.058Z,1.70
2017-12-17T19:34:46.677Z,1.70
2017-12-17T19:39:49.177Z,1.60
2017-12-17T19:44:51.701Z,1.60
2017-12-17T19:49:54.238Z,1.70
2017-12-17T19:54:56.803Z,1.70
2017-12-17T19:59:59.338Z,1.60
2017-12-17T20:05:01.856Z,1.70
2017-12-17T20:10:04.402Z,1.70
2017-12-17T20:15:06.979Z,1.70
2017-12-17T20:20:09.518Z,1.70
2017-12-17T20:25:12.069Z,1.70
2017-12-17T20:30:14.619Z,1.70
2017-12-17T20:35:17.175Z,1.70
2017-12-17T20:40:19.723Z,1.70
2017-12-17T20:45:22.312Z,1.70
2017-12-17T20:50:24.842Z,1.70
2017-12-17T20:55:27.384Z,1.70
2017-12-17T21:00:29.922Z,1.60
2017-12-17T21:05:32.460Z,1.70
2017-12-17T21:10:34.982Z,1.60
2017-12-17T21:15:37.537Z,1.60
2017-12-17T21:20:40.078Z,1.60
2017-12-17T21:25:42.613Z,1.70
2017-12-17T21:30:45.171Z,1.60
2017-12-17T21:35:48.483Z,1.70
2017-12-17T21:40:51.794Z,1.70
2017-12-17T21:45:55.111Z,1.70
2017-12-17T21:50:58.430Z,1.60
2017-12-17T21:56:01.758Z,1.60
2017-12-17T22:01:04.326Z,1.60
2017-12-17T22:06:06.873Z,1.70
2017-12-17T22:11:09.403Z,1.70
2017-12-17T22:16:11.935Z,1.70
2017-12-17T22:21:14.471Z,1.70
2017-12-17T22:26:17.015Z,1.70
2017-12-17T22:31:19.566Z,1.70
2017-12-17T22:36:22.099Z,1.70
2017-12-17T22:41:24.642Z,1.70
2017-12-17T22:46:27.281Z,1.70
2017-12-17T22:51:29.818Z,1.70
2017-12-17T22:56:32.367Z,1.70
2017-12-17T23:01:34.912Z,1.70
2017-12-17T23:06:38.206Z,1.70
2017-12-17T23:11:40.750Z,1.70
2017-12-17T23:16:43.302Z,1.70
2017-12-17T23:21:45.837Z,1.70
2017-12-17T23:26:48.378Z,1.70
2017-12-17T23:31:50.923Z,1.70
2017-12-17T23:36:54.228Z,1.70
2017-12-17T23:41:56.791Z,1.70
2017-12-17T23:46:59.334Z,1.70
2017-12-17T23:52:02.626Z,1.70
2017-12-17T23:57:05.175Z,1.70
